This is the latest recevied weather packets stored in our database for station/object KB1JL-13. If no packets are shown the sender has not sent any weather packets the latest 10 day(s).
| Time | Temp. | Humidity | Pressure | Rain* | Wind** | Luminosity | Snow |
|---|---|---|---|---|---|---|---|
| 1777672318 | 16.11° C | 45% | 1021.6 hPa | 0 mm | - | 241 W/m² | - |
| 1777672013 | 16.11° C | 43% | 1021.6 hPa | 0 mm | - | 259 W/m² | - |
| 1777671406 | 17.78° C | 38% | 1021.6 hPa | 0 mm | - | 278 W/m² | - |
| 1777671102 | 17.78° C | 40% | 1021.6 hPa | 0 mm | - | 289 W/m² | - |
| 1777670799 | 17.22° C | 41% | 1021.2 hPa | 0 mm | - | 300 W/m² | - |
| 1777670496 | 17.78° C | 37% | 1021.6 hPa | 0 mm | - | 313 W/m² | - |
| 1777670192 | 17.22° C | 38% | 1021.6 hPa | 0 mm | - | 308 W/m² | - |
| 1777669890 | 17.22° C | 40% | 1021.6 hPa | 0 mm | - | 325 W/m² | - |
| 1777669586 | 17.78° C | 37% | 1021.2 hPa | 0 mm | - | 342 W/m² | - |
| 1777669283 | 17.78° C | 40% | 1021.2 hPa | 0 mm | - | 362 W/m² | - |
| 1777668980 | 17.78° C | 43% | 1021.6 hPa | 0 mm | - | 372 W/m² | - |
| 1777668677 | 17.22° C | 42% | 1021.6 hPa | 0 mm | - | 386 W/m² | - |
| 1777668374 | 17.78° C | 39% | 1021.2 hPa | 0 mm | - | 397 W/m² | - |
| 1777668070 | 17.22° C | 40% | 1021.2 hPa | 0 mm | - | 405 W/m² | - |
| 1777667766 | 17.22° C | 41% | 1021.2 hPa | 0 mm | - | 421 W/m² | - |
| 1777667464 | 17.22° C | 40% | 1021.2 hPa | 0 mm | - | 442 W/m² | - |
| 1777667161 | 17.22° C | 42% | 1021.6 hPa | 0 mm | - | 468 W/m² | - |
| 1777666857 | 16.67° C | 39% | 1021.6 hPa | 0 mm | - | 472 W/m² | - |
| 1777666555 | 17.22° C | 39% | 1021.2 hPa | 0 mm | - | 131 W/m² | - |
| 1777666251 | 17.78° C | 37% | 1021.6 hPa | 0 mm | - | 491 W/m² | - |
| 1777665948 | 17.78° C | 38% | 1021.6 hPa | 0 mm | - | 510 W/m² | - |
| 1777665645 | 17.22° C | 39% | 1021.2 hPa | 0 mm | - | 412 W/m² | - |
| 1777665343 | 17.78° C | 39% | 1021.6 hPa | 0 mm | - | 509 W/m² | - |
| 1777664734 | 17.22° C | 40% | 1021.6 hPa | 0 mm | - | 570 W/m² | - |
| 1777664127 | 17.22° C | 40% | 1021.6 hPa | 0 mm | - | 572 W/m² | - |
* Rain latest hour (hover to see other rain measurements)
** Current wind speed in m/s (hover to see current wind gust speed)